• Join FlightAware (Why Join?)
  • Login
  • US Flag 
10:24PM EDT


 

Airport Tracker/Info


-or-


 

Live Flight TrackerFlight Track Log ✈ UAL5822 ✈ 02-May-2013 ✈ KORD - KMSN

Flight Track Log - Related Links

Times and Time Zones

All times are in EDT time to prevent confusion due to time zone crossing. See the UAL5822 flight status page for this flight to view local times or setup timezone preferences in your user account.

Time Position Orientation Groundspeed Altitude Reporting Facility
EDT Latitude Longitude Course Direction KTS MPH feet Rate Location/Type
09:29PM 42.7667 -88.5833 270° West 281 323 8,000  Level KMKE
09:31PM 43.1333 -89.3333 270° West  Level FlightAware Approximate
09:32PM 43.1399 -89.3375 270° West  Level Estimated
09:32PM 42.8646 -88.4998 32° Northeast  Level FlightAware Approximate
09:33PM 43.1333 -89.3333 270° West  Level FlightAware Approximate
09:34PM 43.1399 -89.3375 270° West  Level Estimated
09:39PM 43.1167 -88.5361 270° West  Level FlightAware Approximate
09:40PM 43.1167 -88.6330 270° West  Level FlightAware Approximate
09:41PM 43.1167 -88.7299 270° West  Level FlightAware Approximate
09:42PM 43.1186 -88.8266 276° West  Level FlightAware Approximate
09:43PM 43.1255 -88.9230 276° West  Level FlightAware Approximate
09:43PM 42.9753 -89.3450 270° West 191 220 3,000  Level Chicago Center
09:44PM 43.1324 -89.0195 276° West  Level FlightAware Approximate
09:44PM 43.0167 -89.3475 357° North 162 186 3,000  Level Chicago Center
09:45PM 43.1333 -89.1163 270° West  Level FlightAware Approximate
09:45PM 43.0542 -89.3461 North 133 153 2,400  Level Chicago Center
09:46PM 43.1334 -89.2132 270° West  Level FlightAware Approximate
09:47PM 43.1333 -89.3101 270° West  Level FlightAware Approximate
09:48PM 43.1333 -89.3333 270° West  Level FlightAware Approximate
09:49PM 43.1399 -89.3375 270° West  Level Estimated